Time;durP1;ratioP1;P1;durP2;ratioP2;P2;SDS_P1;SDS_P2;PMS_P1;PMS_P2;Temp;Humidity;BMP_temperature;BMP_pressure;BME280_temperature;BME280_humidity;BME280_pressure;Samples;Min_cycle;Max_cycle;Signal;HPM_P1;HPM_P2
2023/10/31 00:01:55;;;;;;;;;;;;;;;8.65;100.00;99482.44;5051125;28;20002;-78
2023/10/31 00:04:40;;;;;;;;;;;;;;;8.63;100.00;99487.81;5042111;28;19925;-75
2023/10/31 00:07:26;;;;;;;;;;;;;;;8.62;100.00;99498.47;5054439;28;20002;-76
2023/10/31 00:10:16;;;;;;;;;;;;;;;8.59;100.00;99493.34;5039454;28;19940;-77
2023/10/31 00:13:02;;;;;;;;;;;;;;;8.59;100.00;99493.34;5025955;28;21608;-78
2023/10/31 00:15:47;;;;;;;;;;;;;;;8.59;100.00;99483.66;5054283;28;19928;-77
2023/10/31 00:18:33;;;;;;;;;;;;;;;8.60;100.00;99492.44;5053944;28;19983;-77
2023/10/31 00:21:19;;;;;;;;;;;;;;;8.59;100.00;99493.34;5052376;28;21782;-78
2023/10/31 00:24:05;;;;;;;;;;;;;;;8.56;100.00;99489.94;5033099;28;19940;-77
2023/10/31 00:26:50;;;;;;;;;;;;;;;8.56;100.00;99497.88;5051987;28;19969;-77
2023/10/31 00:29:38;;;;;;;;;;;;;;;8.57;100.00;99490.81;5054137;28;19929;-77
2023/10/31 00:32:25;;;;;;;;;;;;;;;8.57;100.00;99485.53;5040978;28;19925;-77
2023/10/31 00:35:12;;;;;;;;;;;;;;;8.55;100.00;99487.41;5052158;28;19929;-78
2023/10/31 00:38:02;;;;;;;;;;;;;;;8.52;100.00;99491.09;5037824;28;19933;-77
2023/10/31 00:40:47;;;;;;;;;;;;;;;8.52;100.00;99492.88;5039748;28;19924;-76
2023/10/31 00:43:33;;;;;;;;;;;;;;;8.52;100.00;99487.59;5052742;28;19932;-77
2023/10/31 00:46:19;;;;;;;;;;;;;;;8.54;100.00;99502.41;5044706;28;19929;-78
2023/10/31 00:49:04;;;;;;;;;;;;;;;8.59;100.00;99499.47;5055543;28;20399;-77
2023/10/31 00:51:52;;;;;;;;;;;;;;;8.62;100.00;99480.00;5054469;28;19932;-77
2023/10/31 00:54:38;;;;;;;;;;;;;;;8.64;100.00;99488.66;5055715;28;19929;-77
2023/10/31 00:57:24;;;;;;;;;;;;;;;8.64;100.00;99489.50;5056794;28;20322;-78
2023/10/31 01:00:10;;;;;;;;;;;;;;;8.65;100.00;99485.94;5054585;28;20030;-77
2023/10/31 01:02:55;;;;;;;;;;;;;;;8.66;100.00;99490.25;5055429;28;19927;-77
2023/10/31 01:05:41;;;;;;;;;;;;;;;8.68;100.00;99490.19;5041846;28;19982;-77
2023/10/31 01:08:29;;;;;;;;;;;;;;;8.68;100.00;99496.28;5050525;28;19968;-78
2023/10/31 01:11:15;;;;;;;;;;;;;;;8.68;100.00;99484.91;5054404;28;20260;-76
2023/10/31 01:14:00;;;;;;;;;;;;;;;8.66;100.00;99486.78;5054344;28;19928;-76
2023/10/31 01:16:46;;;;;;;;;;;;;;;8.65;100.00;99482.44;5055666;28;20116;-78
2023/10/31 01:19:39;;;;;;;;;;;;;;;8.64;100.00;99486.88;5054511;28;20415;-78
2023/10/31 01:22:25;;;;;;;;;;;;;;;8.62;100.00;99483.50;5037631;28;19932;-77
2023/10/31 01:25:10;;;;;;;;;;;;;;;8.60;100.00;99476.59;5053174;28;19932;-77
2023/10/31 01:27:56;;;;;;;;;;;;;;;8.60;100.00;99485.34;5054755;28;21216;-77
2023/10/31 01:30:42;;;;;;;;;;;;;;;8.59;100.00;99483.66;5054433;28;20061;-77
2023/10/31 01:33:27;;;;;;;;;;;;;;;8.59;100.00;99482.78;5055601;28;19950;-77
2023/10/31 01:36:14;;;;;;;;;;;;;;;8.56;100.00;99474.13;5044002;28;19932;-77
2023/10/31 01:39:00;;;;;;;;;;;;;;;8.56;100.00;99487.31;5053958;28;19933;-77
2023/10/31 01:41:46;;;;;;;;;;;;;;;8.56;100.00;99489.94;5054350;28;19928;-78
2023/10/31 01:44:32;;;;;;;;;;;;;;;8.55;100.00;99490.91;5039731;28;20299;-77
2023/10/31 01:47:17;;;;;;;;;;;;;;;8.55;100.00;99496.19;5044295;28;19928;-77
2023/10/31 01:50:03;;;;;;;;;;;;;;;8.55;100.00;99497.94;5058148;28;19955;-77
2023/10/31 01:52:49;;;;;;;;;;;;;;;8.55;100.00;99504.09;5056560;28;19924;-78
2023/10/31 01:55:34;;;;;;;;;;;;;;;8.56;100.00;99508.41;5061383;28;19931;-77
2023/10/31 01:58:21;;;;;;;;;;;;;;;8.57;100.00;99509.28;5058484;28;19927;-78
2023/10/31 02:01:07;;;;;;;;;;;;;;;8.56;100.00;99511.06;5046553;28;20025;-78
2023/10/31 02:03:53;;;;;;;;;;;;;;;8.59;100.00;99509.16;5046257;28;19999;-77
2023/10/31 02:06:39;;;;;;;;;;;;;;;8.60;100.00;99505.63;5047424;28;19971;-77
2023/10/31 02:09:27;;;;;;;;;;;;;;;8.61;100.00;99510.78;5060219;28;19936;-78
2023/10/31 02:12:30;;;;;;;;;;;;;;;8.63;100.00;99521.25;5060541;28;20011;-78
2023/10/31 02:15:16;;;;;;;;;;;;;;;8.64;100.00;99510.63;5059662;28;19929;-78
2023/10/31 02:18:01;;;;;;;;;;;;;;;8.65;100.00;99503.53;5061171;28;19935;-78
2023/10/31 02:20:50;;;;;;;;;;;;;;;8.65;100.00;99498.25;5056261;28;19928;-77
2023/10/31 02:23:36;;;;;;;;;;;;;;;8.65;100.00;99490.34;5042152;28;19925;-78
2023/10/31 02:26:31;;;;;;;;;;;;;;;8.65;100.00;99499.13;5050678;28;20445;-76
2023/10/31 02:29:17;;;;;;;;;;;;;;;8.66;100.00;99508.72;5061954;28;19928;-78
2023/10/31 02:32:03;;;;;;;;;;;;;;;8.66;100.00;99515.81;5062741;28;19967;-78
2023/10/31 02:34:51;;;;;;;;;;;;;;;8.68;100.00;99511.28;5048189;28;19932;-78
2023/10/31 02:37:37;;;;;;;;;;;;;;;8.68;100.00;99516.56;5061411;28;19937;-77
2023/10/31 02:40:22;;;;;;;;;;;;;;;8.69;100.00;99513.84;5060800;28;20397;-78
2023/10/31 02:43:08;;;;;;;;;;;;;;;8.70;100.00;99512.03;5060380;28;19955;-78
2023/10/31 02:45:54;;;;;;;;;;;;;;;8.72;100.00;99519.88;5059323;28;20069;-78
2023/10/31 02:48:40;;;;;;;;;;;;;;;8.72;100.00;99525.97;5058584;28;19924;-77
2023/10/31 02:51:25;;;;;;;;;;;;;;;8.74;100.00;99528.53;5061550;28;20512;-77
2023/10/31 02:54:11;;;;;;;;;;;;;;;8.75;100.00;99532.88;5045523;28;19934;-77
2023/10/31 02:56:57;;;;;;;;;;;;;;;8.76;100.00;99546.00;5058773;28;20019;-77
2023/10/31 02:59:46;;;;;;;;;;;;;;;8.77;100.00;99545.03;5056565;28;19936;-76
2023/10/31 03:02:31;;;;;;;;;;;;;;;8.78;100.00;99541.47;5045952;28;19928;-77
2023/10/31 03:05:20;;;;;;;;;;;;;;;8.79;100.00;99545.81;5055562;28;20027;-77
2023/10/31 03:08:08;;;;;;;;;;;;;;;8.81;100.00;99540.44;5056575;28;20568;-78
2023/10/31 03:10:53;;;;;;;;;;;;;;;8.82;100.00;99542.13;5056506;28;19920;-77
2023/10/31 03:13:44;;;;;;;;;;;;;;;8.85;100.00;99549.00;5057276;28;19940;-76
2023/10/31 03:16:30;;;;;;;;;;;;;;;8.85;100.00;99554.28;5055721;28;21623;-77
2023/10/31 03:19:15;;;;;;;;;;;;;;;8.86;100.00;99563.91;5058905;28;19928;-77
2023/10/31 03:22:01;;;;;;;;;;;;;;;8.86;100.00;99563.91;5057370;28;20487;-78
2023/10/31 03:24:47;;;;;;;;;;;;;;;8.87;100.00;99560.34;5056791;28;19975;-78
2023/10/31 03:27:33;;;;;;;;;;;;;;;8.88;100.00;99567.34;5040910;28;19929;-78
2023/10/31 03:30:19;;;;;;;;;;;;;;;8.88;100.00;99572.59;5058436;28;19929;-78
2023/10/31 03:33:05;;;;;;;;;;;;;;;8.87;100.00;99571.75;5059332;28;19933;-77
2023/10/31 03:35:51;;;;;;;;;;;;;;;8.85;100.00;99576.28;5048112;28;19932;-77
2023/10/31 03:38:37;;;;;;;;;;;;;;;8.83;100.00;99579.00;5058273;28;19974;-77
2023/10/31 03:41:22;;;;;;;;;;;;;;;8.82;100.00;99587.00;5029125;28;20019;-77
2023/10/31 03:44:08;;;;;;;;;;;;;;;8.80;100.00;99587.09;5039677;28;19936;-78
2023/10/31 03:46:54;;;;;;;;;;;;;;;8.79;100.00;99588.06;5057813;28;19920;-77
2023/10/31 03:49:39;;;;;;;;;;;;;;;8.77;100.00;99575.88;5057069;28;19951;-78
2023/10/31 03:52:25;;;;;;;;;;;;;;;8.74;100.00;99574.25;5045066;28;19928;-77
2023/10/31 03:55:11;;;;;;;;;;;;;;;8.73;100.00;99596.31;5039601;28;20356;-78
2023/10/31 03:57:56;;;;;;;;;;;;;;;8.71;100.00;99592.06;5056536;28;20323;-77
2023/10/31 04:00:42;;;;;;;;;;;;;;;8.68;100.00;99599.19;5058427;28;21232;-77
2023/10/31 04:03:28;;;;;;;;;;;;;;;8.66;100.00;99603.72;5043923;28;19921;-78
2023/10/31 04:06:13;;;;;;;;;;;;;;;8.63;100.00;99605.69;5059556;28;19929;-77
2023/10/31 04:08:59;;;;;;;;;;;;;;;8.61;100.00;99611.03;5046237;28;19936;-78
2023/10/31 04:11:48;;;;;;;;;;;;;;;8.59;100.00;99610.28;5057958;28;21718;-78
2023/10/31 04:14:39;;;;;;;;;;;;;;;8.56;100.00;99606.03;5053716;28;19996;-78
2023/10/31 04:17:25;;;;;;;;;;;;;;;8.55;100.00;99611.38;5059375;28;19994;-78
2023/10/31 04:20:10;;;;;;;;;;;;;;;8.54;100.00;99609.69;5058416;28;19933;-77
2023/10/31 04:22:56;;;;;;;;;;;;;;;8.54;100.00;99613.19;5057379;28;20402;-77
2023/10/31 04:25:42;;;;;;;;;;;;;;;8.54;100.00;99610.56;5058541;28;20918;-78
2023/10/31 04:28:27;;;;;;;;;;;;;;;8.53;100.00;99616.78;5057830;28;19929;-77
2023/10/31 04:31:13;;;;;;;;;;;;;;;8.53;100.00;99616.78;5056670;28;20015;-78
2023/10/31 04:33:58;;;;;;;;;;;;;;;8.52;100.00;99607.16;5057529;28;20029;-78
2023/10/31 04:36:44;;;;;;;;;;;;;;;8.54;100.00;99617.59;5056138;28;19972;-79
2023/10/31 04:39:30;;;;;;;;;;;;;;;8.55;100.00;99616.66;5055741;28;19932;-77
2023/10/31 04:42:15;;;;;;;;;;;;;;;8.57;100.00;99617.44;5057316;28;19928;-77
2023/10/31 04:45:07;;;;;;;;;;;;;;;8.59;100.00;99622.63;5042422;28;19925;-78
2023/10/31 04:47:53;;;;;;;;;;;;;;;8.61;100.00;99623.41;5055799;28;19927;-77
2023/10/31 04:50:39;;;;;;;;;;;;;;;8.62;100.00;99623.31;5056707;28;20063;-79
2023/10/31 04:53:25;;;;;;;;;;;;;;;8.65;100.00;99624.91;5046259;28;20154;-79
2023/10/31 04:56:14;;;;;;;;;;;;;;;8.67;100.00;99625.69;5056476;28;19955;-79
2023/10/31 04:59:00;;;;;;;;;;;;;;;8.68;100.00;99619.47;5056104;28;19925;-77
2023/10/31 05:01:49;;;;;;;;;;;;;;;8.69;100.00;99626.44;5054104;28;19928;-77
2023/10/31 05:04:39;;;;;;;;;;;;;;;8.71;100.00;99626.38;5057165;28;19998;-77
2023/10/31 05:07:25;;;;;;;;;;;;;;;8.72;100.00;99626.25;5053506;28;19935;-77
2023/10/31 05:10:11;;;;;;;;;;;;;;;8.73;100.00;99630.63;5065884;28;21842;-78
2023/10/31 05:12:56;;;;;;;;;;;;;;;8.74;100.00;99618.25;5055400;28;19925;-78
2023/10/31 05:15:42;;;;;;;;;;;;;;;8.74;100.00;99623.53;5069151;28;20004;-78
2023/10/31 05:18:28;;;;;;;;;;;;;;;8.75;100.00;99635.78;5053713;28;21780;-77
2023/10/31 05:21:18;;;;;;;;;;;;;;;8.74;100.00;99634.97;5054504;28;20375;-78
2023/10/31 05:24:04;;;;;;;;;;;;;;;8.76;100.00;99634.88;5056052;28;20047;-78
2023/10/31 05:26:49;;;;;;;;;;;;;;;8.77;100.00;99636.56;5049480;28;19921;-76
2023/10/31 05:29:37;;;;;;;;;;;;;;;8.77;100.00;99642.69;5056029;28;19951;-78
2023/10/31 05:32:22;;;;;;;;;;;;;;;8.78;100.00;99644.38;5061360;28;19931;-77
2023/10/31 05:35:08;;;;;;;;;;;;;;;8.77;100.00;99645.31;5068512;28;20011;-79
2023/10/31 05:37:54;;;;;;;;;;;;;;;8.77;100.00;99644.50;5054799;28;20694;-77
2023/10/31 05:40:40;;;;;;;;;;;;;;;8.78;100.00;99652.28;5053039;28;20363;-78
2023/10/31 05:43:25;;;;;;;;;;;;;;;8.80;100.00;99652.22;5057375;28;19933;-78
2023/10/31 05:46:13;;;;;;;;;;;;;;;8.79;100.00;99659.31;5068844;28;19932;-78
2023/10/31 05:48:59;;;;;;;;;;;;;;;8.80;100.00;99663.63;5057598;28;19936;-77
2023/10/31 05:51:45;;;;;;;;;;;;;;;8.82;100.00;99669.66;5058933;28;20061;-77
2023/10/31 05:54:33;;;;;;;;;;;;;;;8.83;100.00;99670.53;5078207;28;19934;-77
2023/10/31 05:57:19;;;;;;;;;;;;;;;8.85;100.00;99673.94;5081901;28;20381;-77
2023/10/31 06:00:05;;;;;;;;;;;;;;;8.85;100.00;99670.44;5080657;28;20053;-78
2023/10/31 06:02:51;;;;;;;;;;;;;;;8.86;100.00;99686.19;5079709;28;19950;-77
2023/10/31 06:05:36;;;;;;;;;;;;;;;8.87;100.00;99685.25;5083708;28;19952;-77
2023/10/31 06:08:24;;;;;;;;;;;;;;;8.89;100.00;99685.16;5080377;28;19932;-77
2023/10/31 06:11:12;;;;;;;;;;;;;;;8.90;100.00;99690.38;5080914;28;20054;-77
2023/10/31 06:13:59;;;;;;;;;;;;;;;8.91;100.00;99680.63;5063839;28;19988;-78
2023/10/31 06:16:44;;;;;;;;;;;;;;;8.93;100.00;99676.16;5081236;28;20010;-77
2023/10/31 06:19:34;;;;;;;;;;;;;;;8.93;100.00;99692.81;5080928;28;19983;-77
2023/10/31 06:22:19;;;;;;;;;;;;;;;8.94;100.00;99683.13;5075468;28;20922;-78
2023/10/31 06:25:05;;;;;;;;;;;;;;;8.93;100.00;99697.25;5080521;28;20804;-76
2023/10/31 06:27:51;;;;;;;;;;;;;;;8.92;100.00;99706.94;5086028;28;20134;-79
2023/10/31 06:30:37;;;;;;;;;;;;;;;8.92;100.00;99708.72;5081859;28;19931;-78
2023/10/31 06:33:23;;;;;;;;;;;;;;;8.90;100.00;99706.19;5066686;28;19935;-78
2023/10/31 06:36:08;;;;;;;;;;;;;;;8.90;100.00;99702.69;5080249;28;19940;-76
2023/10/31 06:38:54;;;;;;;;;;;;;;;8.90;100.00;99721.16;5080522;28;19936;-77
2023/10/31 06:41:40;;;;;;;;;;;;;;;8.87;100.00;99719.56;5080090;28;20011;-77
2023/10/31 06:44:26;;;;;;;;;;;;;;;8.85;100.00;99718.78;5064937;28;20938;-77
2023/10/31 06:47:12;;;;;;;;;;;;;;;8.82;100.00;99713.69;5059089;28;20375;-77
2023/10/31 06:50:00;;;;;;;;;;;;;;;8.80;100.00;99724.34;5080154;28;19923;-77
2023/10/31 06:52:46;;;;;;;;;;;;;;;8.76;100.00;99725.44;5081668;28;19932;-78
2023/10/31 06:55:31;;;;;;;;;;;;;;;8.74;100.00;99732.59;5078481;28;19928;-78
2023/10/31 06:58:17;;;;;;;;;;;;;;;8.71;100.00;99734.56;5077340;28;20018;-78
2023/10/31 07:01:03;;;;;;;;;;;;;;;8.68;100.00;99741.69;5078111;28;19928;-78
2023/10/31 07:03:49;;;;;;;;;;;;;;;8.66;100.00;99742.72;5079911;28;19939;-77
2023/10/31 07:06:34;;;;;;;;;;;;;;;8.64;100.00;99755.13;5057441;28;19928;-77
2023/10/31 07:09:20;;;;;;;;;;;;;;;8.63;100.00;99758.72;5077265;28;19987;-76
2023/10/31 07:12:06;;;;;;;;;;;;;;;8.62;100.00;99765.78;5074959;28;20032;-76
2023/10/31 07:14:55;;;;;;;;;;;;;;;8.65;100.00;99762.09;5075317;28;20290;-77
2023/10/31 07:17:40;;;;;;;;;;;;;;;8.68;100.00;99767.25;5059686;28;19929;-77
2023/10/31 07:20:26;;;;;;;;;;;;;;;8.68;100.00;99765.44;5074020;28;19935;-77
2023/10/31 07:23:12;;;;;;;;;;;;;;;8.71;100.00;99772.34;5062121;28;19931;-77
2023/10/31 07:25:58;;;;;;;;;;;;;;;8.72;100.00;99770.56;5075385;28;19949;-75
2023/10/31 07:28:44;;;;;;;;;;;;;;;8.74;100.00;99780.09;5075435;28;20018;-75
2023/10/31 07:31:30;;;;;;;;;;;;;;;8.74;100.00;99777.47;5058730;28;19928;-78
2023/10/31 07:34:15;;;;;;;;;;;;;;;8.77;100.00;99784.38;5059801;28;19931;-78
2023/10/31 07:37:04;;;;;;;;;;;;;;;8.79;100.00;99791.25;5074167;28;20448;-77
2023/10/31 07:39:52;;;;;;;;;;;;;;;8.82;100.00;99791.09;5047416;28;21618;-80
2023/10/31 07:42:38;;;;;;;;;;;;;;;8.85;100.00;99783.91;5075574;28;19959;-80
2023/10/31 07:45:23;;;;;;;;;;;;;;;8.90;100.00;99792.44;5075915;28;19936;-78
2023/10/31 07:48:09;;;;;;;;;;;;;;;8.92;100.00;99790.56;5075420;28;19950;-78
2023/10/31 07:50:54;;;;;;;;;;;;;;;8.95;100.00;99799.16;5075820;28;19928;-81
2023/10/31 07:53:42;;;;;;;;;;;;;;;9.00;100.00;99804.22;5073823;28;19927;-80
2023/10/31 07:56:34;;;;;;;;;;;;;;;9.02;100.00;99806.75;5076786;28;19928;-79
2023/10/31 07:59:20;;;;;;;;;;;;;;;9.04;100.00;99813.66;5058059;28;19921;-80
2023/10/31 08:02:06;;;;;;;;;;;;;;;9.07;100.00;99815.28;5075339;28;19927;-80
2023/10/31 08:04:52;;;;;;;;;;;;;;;9.08;100.00;99815.19;5056255;28;20461;-81
2023/10/31 08:07:43;;;;;;;;;;;;;;;9.12;100.00;99829.06;5074652;28;20477;-81
2023/10/31 08:10:29;;;;;;;;;;;;;;;9.14;100.00;99831.63;5075133;28;19928;-80
2023/10/31 08:13:15;;;;;;;;;;;;;;;9.15;100.00;99841.25;5074524;28;19924;-79
2023/10/31 08:16:03;;;;;;;;;;;;;;;9.16;100.00;99835.03;5061457;28;19975;-80
2023/10/31 08:18:48;;;;;;;;;;;;;;;9.22;100.00;99845.25;5076741;28;19927;-79
2023/10/31 08:21:35;;;;;;;;;;;;;;;9.27;100.00;99847.63;5074925;28;19935;-81
2023/10/31 08:24:21;;;;;;;;;;;;;;;9.31;100.00;99855.31;5078282;28;20307;-83
2023/10/31 08:27:10;;;;;;;;;;;;;;;9.36;100.00;99853.25;5077287;28;19959;-77
2023/10/31 08:29:55;;;;;;;;;;;;;;;9.40;100.00;99853.06;5056115;28;19993;-78
2023/10/31 08:32:41;;;;;;;;;;;;;;;9.38;100.00;99864.59;5075036;28;19928;-80
2023/10/31 08:35:27;;;;;;;;;;;;;;;9.36;100.00;99865.59;5060102;28;20011;-78
2023/10/31 08:38:13;;;;;;;;;;;;;;;9.34;100.00;99880.69;5075588;28;20405;-80
2023/10/31 08:40:59;;;;;;;;;;;;;;;9.31;100.00;99887.00;5061993;28;19966;-80
2023/10/31 08:43:45;;;;;;;;;;;;;;;9.30;100.00;99887.94;5077593;28;19932;-79
2023/10/31 08:46:31;;;;;;;;;;;;;;;9.29;100.00;99899.44;5046532;28;19943;-80
2023/10/31 08:49:17;;;;;;;;;;;;;;;9.30;100.00;99905.56;5075615;28;19928;-80
2023/10/31 08:52:04;;;;;;;;;;;;;;;9.30;100.00;99895.88;5060336;28;19927;-79
2023/10/31 08:54:49;;;;;;;;;;;;;;;9.31;100.00;99900.19;5075550;28;19936;-79
2023/10/31 08:57:35;;;;;;;;;;;;;;;9.34;100.00;99907.09;5075488;28;19975;-81
2023/10/31 09:00:21;;;;;;;;;;;;;;;9.37;100.00;99917.50;5059991;28;19951;-79
2023/10/31 09:03:10;;;;;;;;;;;;;;;9.43;100.00;99933.00;5056046;28;20460;-80
2023/10/31 09:05:56;;;;;;;;;;;;;;;9.50;100.00;99933.53;5079023;28;20493;-81
2023/10/31 09:08:42;;;;;;;;;;;;;;;9.55;100.00;99934.13;5078462;28;20497;-79
2023/10/31 09:11:28;;;;;;;;;;;;;;;9.57;100.00;99929.63;5046221;28;20341;-80
2023/10/31 09:14:13;;;;;;;;;;;;;;;9.57;100.00;99940.19;5062051;28;20062;-79
2023/10/31 09:16:59;;;;;;;;;;;;;;;9.57;100.00;99942.81;5078488;28;19935;-80
2023/10/31 09:19:48;;;;;;;;;;;;;;;9.57;100.00;99956.03;5078353;28;20809;-78
2023/10/31 09:22:33;;;;;;;;;;;;;;;9.56;100.00;99954.34;5061230;28;20930;-78
2023/10/31 09:25:23;;;;;;;;;;;;;;;9.54;100.00;99960.63;5079590;28;20365;-79
2023/10/31 09:28:09;;;;;;;;;;;;;;;9.51;100.00;99972.22;5077650;28;19954;-79
2023/10/31 09:30:55;;;;;;;;;;;;;;;9.49;100.00;99971.47;5079426;28;19935;-79
2023/10/31 09:33:41;;;;;;;;;;;;;;;9.49;100.00;99977.59;5078712;28;19939;-80
2023/10/31 09:36:27;;;;;;;;;;;;;;;9.50;100.00;99981.94;5075044;28;19932;-79
2023/10/31 09:39:12;;;;;;;;;;;;;;;9.48;100.00;99982.97;5065704;28;19935;-80
2023/10/31 09:41:58;;;;;;;;;;;;;;;9.48;100.00;99989.09;5077991;28;19928;-80
2023/10/31 09:44:43;;;;;;;;;;;;;;;9.48;100.00;99990.91;5064564;28;19932;-79
2023/10/31 09:47:34;;;;;;;;;;;;;;;9.50;100.00;99992.50;5059796;28;19932;-80
2023/10/31 09:50:20;;;;;;;;;;;;;;;9.56;100.00;99995.75;5075423;28;19934;-79
2023/10/31 09:53:05;;;;;;;;;;;;;;;9.60;100.00;100000.78;5077916;28;20330;-80
2023/10/31 09:55:52;;;;;;;;;;;;;;;9.64;100.00;99999.69;5061915;28;19997;-80
2023/10/31 09:58:41;;;;;;;;;;;;;;;9.67;100.00;100008.38;5064316;28;19920;-79
2023/10/31 10:01:27;;;;;;;;;;;;;;;9.69;100.00;100009.16;5079419;28;20005;-80
2023/10/31 10:04:13;;;;;;;;;;;;;;;9.70;100.00;100013.50;5059133;28;19927;-79
2023/10/31 10:06:59;;;;;;;;;;;;;;;9.73;100.00;100019.47;5076792;28;19928;-79
2023/10/31 10:09:46;;;;;;;;;;;;;;;9.77;100.00;100020.16;5052148;28;19920;-80
2023/10/31 10:12:34;;;;;;;;;;;;;;;9.80;100.00;100035.84;5058783;28;19928;-81
2023/10/31 10:15:19;;;;;;;;;;;;;;;9.81;100.00;100040.19;5080777;28;19928;-81
2023/10/31 10:18:05;;;;;;;;;;;;;;;9.81;100.00;100037.53;5078950;28;19935;-81
2023/10/31 10:20:58;;;;;;;;;;;;;;;9.82;100.00;100044.56;5079200;28;19928;-80
2023/10/31 10:23:44;;;;;;;;;;;;;;;9.84;100.00;100041.81;5079149;28;19928;-80
2023/10/31 10:26:33;;;;;;;;;;;;;;;9.84;100.00;100047.97;5063548;28;19928;-80
2023/10/31 10:29:18;;;;;;;;;;;;;;;9.86;100.00;100056.66;5076422;28;20042;-79
2023/10/31 10:32:06;;;;;;;;;;;;;;;9.87;100.00;100058.34;5058565;28;19920;-79
2023/10/31 10:34:51;;;;;;;;;;;;;;;9.84;100.00;100060.31;5077762;28;19931;-80
2023/10/31 10:37:37;;;;;;;;;;;;;;;9.74;100.00;100060.81;5079524;28;19997;-79
2023/10/31 10:40:23;;;;;;;;;;;;;;;9.65;100.00;100069.28;5050343;28;19927;-80
2023/10/31 10:43:17;;;;;;;;;;;;;;;9.57;100.00;100069.66;5075747;28;20018;-79
2023/10/31 10:46:03;;;;;;;;;;;;;;;9.51;100.00;100077.91;5059068;28;19940;-79
2023/10/31 10:48:49;;;;;;;;;;;;;;;9.50;100.00;100074.41;5059698;28;19924;-79
2023/10/31 10:51:46;;;;;;;;;;;;;;;9.54;100.00;100068.97;5058499;28;19920;-79
2023/10/31 10:54:33;;;;;;;;;;;;;;;9.59;100.00;100070.44;5077259;28;19934;-79
2023/10/31 10:57:21;;;;;;;;;;;;;;;9.63;100.00;100065.84;5057735;28;19953;-78
2023/10/31 11:00:12;;;;;;;;;;;;;;;9.65;100.00;100070.09;5060882;28;19924;-80
2023/10/31 11:02:58;;;;;;;;;;;;;;;9.71;100.00;100078.66;5064608;28;19928;-81
2023/10/31 11:05:43;;;;;;;;;;;;;;;9.77;100.00;100083.59;5060468;28;19939;-80
2023/10/31 11:08:29;;;;;;;;;;;;;;;9.80;100.00;100088.72;5064185;28;20401;-80
2023/10/31 11:11:17;;;;;;;;;;;;;;;9.83;100.00;100093.84;5057938;28;20977;-80
2023/10/31 11:14:03;;;;;;;;;;;;;;;9.84;100.00;100084.97;5063675;28;19925;-80
2023/10/31 11:16:51;;;;;;;;;;;;;;;9.84;100.00;100089.41;5080260;28;19928;-80
2023/10/31 11:19:37;;;;;;;;;;;;;;;9.83;100.00;100099.13;5080544;28;19932;-79
2023/10/31 11:22:22;;;;;;;;;;;;;;;9.83;100.00;100098.28;5067808;28;19924;-80
2023/10/31 11:25:08;;;;;;;;;;;;;;;9.83;100.00;100096.50;5061448;28;20011;-80
2023/10/31 11:27:54;;;;;;;;;;;;;;;9.84;100.00;100100.84;5076312;28;19928;-80
2023/10/31 11:30:40;;;;;;;;;;;;;;;9.85;100.00;100102.53;5060338;28;19925;-81
2023/10/31 11:33:28;;;;;;;;;;;;;;;9.82;100.00;100113.28;5079969;28;19927;-83
2023/10/31 11:36:15;;;;;;;;;;;;;;;9.82;100.00;100118.59;5045256;28;21882;-80
2023/10/31 11:39:12;;;;;;;;;;;;;;;9.80;100.00;100120.44;5075554;28;19935;-81
2023/10/31 11:41:57;;;;;;;;;;;;;;;9.78;100.00;100128.47;5059645;28;19979;-80
2023/10/31 11:44:54;;;;;;;;;;;;;;;9.73;100.00;100129.63;5048035;28;20003;-79
2023/10/31 11:47:50;;;;;;;;;;;;;;;9.56;100.00;100138.44;5078079;28;19939;-80
2023/10/31 11:50:36;;;;;;;;;;;;;;;9.50;100.00;100139.63;5060216;28;19934;-80
2023/10/31 11:53:22;;;;;;;;;;;;;;;9.47;100.00;100142.41;5079932;28;19928;-79
2023/10/31 11:56:11;;;;;;;;;;;;;;;9.47;100.00;100135.38;5079997;28;20375;-79
2023/10/31 11:59:07;;;;;;;;;;;;;;;9.49;100.00;100133.47;5077783;28;20378;-81
2023/10/31 12:01:53;;;;;;;;;;;;;;;9.51;100.00;100136.06;5081224;28;20355;-80
2023/10/31 12:04:39;;;;;;;;;;;;;;;9.53;100.00;100142.09;5068440;28;19935;-80
2023/10/31 12:07:24;;;;;;;;;;;;;;;9.58;100.00;100141.88;5048685;28;19928;-80
2023/10/31 12:10:10;;;;;;;;;;;;;;;9.60;100.00;100146.13;5080606;28;19975;-80
2023/10/31 12:12:56;;;;;;;;;;;;;;;9.62;100.00;100152.22;5068576;28;19928;-79
2023/10/31 12:15:51;;;;;;;;;;;;;;;9.62;100.00;100161.91;5083046;28;20504;-79
2023/10/31 12:18:38;;;;;;;;;;;;;;;9.64;100.00;100168.84;5080669;28;19923;-81
2023/10/31 12:21:59;;;;;;;;;;;;;;;9.70;100.00;100161.53;5066423;28;19928;-81
2023/10/31 12:24:46;;;;;;;;;;;;;;;9.76;100.00;100159.41;5039601;28;19928;-79
2023/10/31 12:27:44;;;;;;;;;;;;;;;9.79;100.00;100161.03;5078591;28;19932;-80
2023/10/31 12:30:32;;;;;;;;;;;;;;;9.80;100.00;100168.03;5078830;28;19956;-79
2023/10/31 12:33:18;;;;;;;;;;;;;;;9.81;100.00;100163.59;5056330;28;19934;-80
2023/10/31 12:36:04;;;;;;;;;;;;;;;9.83;100.00;100180.22;5077941;28;19928;-79
2023/10/31 12:38:53;;;;;;;;;;;;;;;9.88;100.00;100172.91;5081431;28;19928;-79
2023/10/31 12:41:39;;;;;;;;;;;;;;;9.90;100.00;100173.66;5057471;28;20648;-79
2023/10/31 12:44:26;;;;;;;;;;;;;;;9.86;100.00;100178.28;5064332;28;20019;-78
2023/10/31 12:47:20;;;;;;;;;;;;;;;9.81;100.00;100182.09;5065428;28;21704;-78
2023/10/31 12:50:08;;;;;;;;;;;;;;;9.79;100.00;100176.88;5053132;28;19925;-77
2023/10/31 12:52:54;;;;;;;;;;;;;;;9.76;100.00;100179.72;5086352;28;19927;-77
2023/10/31 12:55:41;;;;;;;;;;;;;;;9.76;100.00;100185.00;5065679;28;20023;-78
2023/10/31 12:58:26;;;;;;;;;;;;;;;9.74;100.00;100181.56;5072389;28;19956;-77
2023/10/31 13:01:12;;;;;;;;;;;;;;;9.76;100.00;100179.72;5071585;28;19935;-79
2023/10/31 13:03:58;;;;;;;;;;;;;;;9.71;100.00;100174.66;5087146;28;19927;-79
2023/10/31 13:06:54;;;;;;;;;;;;;;;9.65;100.00;100170.53;5084181;28;20432;-77
2023/10/31 13:09:41;;;;;;;;;;;;;;;9.62;100.00;100183.06;5085260;28;20038;-78
2023/10/31 13:12:30;;;;;;;;;;;;;;;9.63;100.00;100188.28;5085054;28;19973;-77
2023/10/31 13:15:16;;;;;;;;;;;;;;;9.67;100.00;100194.25;5065970;27;19928;-77
2023/10/31 13:18:02;;;;;;;;;;;;;;;9.73;100.00;100182.50;5086179;28;19977;-78
2023/10/31 13:20:47;;;;;;;;;;;;;;;9.75;100.00;100183.28;5088890;28;19928;-78
2023/10/31 13:23:38;;;;;;;;;;;;;;;9.79;100.00;100187.47;5085568;28;19928;-77
2023/10/31 13:26:24;;;;;;;;;;;;;;;9.79;100.00;100187.47;5083977;28;19928;-77
2023/10/31 13:29:12;;;;;;;;;;;;;;;9.79;100.00;100184.81;5080520;28;20496;-78
2023/10/31 13:31:57;;;;;;;;;;;;;;;9.81;100.00;100188.22;5081086;28;19982;-78
2023/10/31 13:34:43;;;;;;;;;;;;;;;9.82;100.00;100187.31;5084418;28;20066;-77
2023/10/31 13:37:29;;;;;;;;;;;;;;;9.80;100.00;100193.63;5085046;28;19924;-77
2023/10/31 13:40:15;;;;;;;;;;;;;;;9.79;100.00;100192.75;5082087;28;19937;-78
2023/10/31 13:43:00;;;;;;;;;;;;;;;9.83;100.00;100196.94;5083897;27;20010;-77
2023/10/31 13:45:46;;;;;;;;;;;;;;;9.84;100.00;100201.31;5063145;28;19924;-77
2023/10/31 13:48:32;;;;;;;;;;;;;;;9.84;100.00;100203.94;5085761;28;19923;-77
2023/10/31 13:51:19;;;;;;;;;;;;;;;9.83;100.00;100207.53;5082890;28;20011;-78
2023/10/31 13:54:04;;;;;;;;;;;;;;;9.84;100.00;100203.06;5066760;28;19978;-77
2023/10/31 13:56:50;;;;;;;;;;;;;;;9.80;100.00;100212.97;5078807;28;19935;-78
2023/10/31 13:59:36;;;;;;;;;;;;;;;9.72;100.00;100209.88;5083134;28;20409;-77
2023/10/31 14:02:22;;;;;;;;;;;;;;;9.65;100.00;100219.91;5078127;28;19928;-78
2023/10/31 14:05:08;;;;;;;;;;;;;;;9.54;100.00;100214.31;5079717;28;20074;-77
2023/10/31 14:07:54;;;;;;;;;;;;;;;9.45;100.00;100221.78;5079790;28;19949;-78
2023/10/31 14:10:40;;;;;;;;;;;;;;;9.40;100.00;100222.94;5077876;28;19923;-78
2023/10/31 14:13:25;;;;;;;;;;;;;;;9.36;100.00;100220.47;5063033;28;19929;-78
2023/10/31 14:16:12;;;;;;;;;;;;;;;9.33;100.00;100231.16;5078260;28;20018;-78
2023/10/31 14:18:57;;;;;;;;;;;;;;;9.33;100.00;100233.81;5081616;28;19931;-77
2023/10/31 14:21:45;;;;;;;;;;;;;;;9.33;100.00;100225.03;5078324;28;19978;-77
2023/10/31 14:24:32;;;;;;;;;;;;;;;9.34;100.00;100234.69;5079336;28;19939;-78